sensor_id;sensor_type;location;lat;lon;timestamp;P1;durP1;ratioP1;P2;durP2;ratioP2
39102;SDS011;24847;48.218;16.414;2022-08-25T00:00:29;13.38;;;9.95;;
39102;SDS011;24847;48.218;16.414;2022-08-25T00:05:32;15.65;;;9.55;;
39102;SDS011;24847;48.218;16.414;2022-08-25T00:10:35;12.20;;;10.35;;
39102;SDS011;24847;48.218;16.414;2022-08-25T00:15:39;12.65;;;9.60;;
39102;SDS011;24847;48.218;16.414;2022-08-25T00:20:43;14.43;;;10.43;;
39102;SDS011;24847;48.218;16.414;2022-08-25T00:25:46;19.50;;;9.75;;
39102;SDS011;24847;48.218;16.414;2022-08-25T00:30:49;14.13;;;9.70;;
39102;SDS011;24847;48.218;16.414;2022-08-25T00:35:53;15.77;;;10.95;;
39102;SDS011;24847;48.218;16.414;2022-08-25T00:40:55;13.88;;;9.25;;
39102;SDS011;24847;48.218;16.414;2022-08-25T00:46:07;15.50;;;9.95;;
39102;SDS011;24847;48.218;16.414;2022-08-25T00:51:13;11.73;;;9.98;;
39102;SDS011;24847;48.218;16.414;2022-08-25T00:56:21;13.80;;;9.82;;
39102;SDS011;24847;48.218;16.414;2022-08-25T01:01:25;14.68;;;10.05;;
39102;SDS011;24847;48.218;16.414;2022-08-25T01:06:29;15.70;;;10.35;;
39102;SDS011;24847;48.218;16.414;2022-08-25T01:11:37;15.00;;;10.10;;
39102;SDS011;24847;48.218;16.414;2022-08-25T01:16:39;16.60;;;10.02;;
39102;SDS011;24847;48.218;16.414;2022-08-25T01:21:47;15.07;;;10.32;;
39102;SDS011;24847;48.218;16.414;2022-08-25T01:26:51;14.55;;;10.10;;
39102;SDS011;24847;48.218;16.414;2022-08-25T01:31:55;14.00;;;9.70;;
39102;SDS011;24847;48.218;16.414;2022-08-25T01:37:00;11.40;;;9.10;;
39102;SDS011;24847;48.218;16.414;2022-08-25T01:42:08;13.98;;;9.38;;
39102;SDS011;24847;48.218;16.414;2022-08-25T01:47:24;13.68;;;10.25;;
39102;SDS011;24847;48.218;16.414;2022-08-25T01:52:29;13.20;;;10.60;;
39102;SDS011;24847;48.218;16.414;2022-08-25T01:57:38;13.98;;;10.55;;
39102;SDS011;24847;48.218;16.414;2022-08-25T02:02:40;13.30;;;9.98;;
39102;SDS011;24847;48.218;16.414;2022-08-25T02:07:44;10.75;;;9.65;;
39102;SDS011;24847;48.218;16.414;2022-08-25T02:12:47;15.18;;;11.02;;
39102;SDS011;24847;48.218;16.414;2022-08-25T02:17:51;14.65;;;10.77;;
39102;SDS011;24847;48.218;16.414;2022-08-25T02:22:54;12.48;;;9.73;;
39102;SDS011;24847;48.218;16.414;2022-08-25T02:27:56;14.25;;;10.68;;
39102;SDS011;24847;48.218;16.414;2022-08-25T02:32:59;12.88;;;9.73;;
39102;SDS011;24847;48.218;16.414;2022-08-25T02:38:03;14.88;;;10.02;;
39102;SDS011;24847;48.218;16.414;2022-08-25T02:43:06;14.60;;;10.43;;
39102;SDS011;24847;48.218;16.414;2022-08-25T02:48:08;12.85;;;9.55;;
39102;SDS011;24847;48.218;16.414;2022-08-25T02:53:12;15.25;;;10.27;;
39102;SDS011;24847;48.218;16.414;2022-08-25T02:58:14;14.77;;;9.48;;
39102;SDS011;24847;48.218;16.414;2022-08-25T03:03:17;18.85;;;15.45;;
39102;SDS011;24847;48.218;16.414;2022-08-25T03:08:22;13.38;;;10.15;;
39102;SDS011;24847;48.218;16.414;2022-08-25T03:13:25;11.80;;;9.32;;
39102;SDS011;24847;48.218;16.414;2022-08-25T03:18:27;12.55;;;10.07;;
39102;SDS011;24847;48.218;16.414;2022-08-25T03:23:32;14.13;;;9.98;;
39102;SDS011;24847;48.218;16.414;2022-08-25T03:28:34;12.15;;;10.18;;
39102;SDS011;24847;48.218;16.414;2022-08-25T03:33:36;12.60;;;9.65;;
39102;SDS011;24847;48.218;16.414;2022-08-25T03:38:41;11.07;;;9.88;;
39102;SDS011;24847;48.218;16.414;2022-08-25T03:43:43;12.45;;;10.55;;
39102;SDS011;24847;48.218;16.414;2022-08-25T03:48:45;16.17;;;10.52;;
39102;SDS011;24847;48.218;16.414;2022-08-25T03:53:49;13.20;;;9.93;;
39102;SDS011;24847;48.218;16.414;2022-08-25T03:58:51;15.23;;;10.95;;
39102;SDS011;24847;48.218;16.414;2022-08-25T04:03:54;12.95;;;10.43;;
39102;SDS011;24847;48.218;16.414;2022-08-25T04:08:58;15.25;;;10.38;;
39102;SDS011;24847;48.218;16.414;2022-08-25T04:14:00;16.08;;;10.80;;
39102;SDS011;24847;48.218;16.414;2022-08-25T04:19:04;13.95;;;10.27;;
39102;SDS011;24847;48.218;16.414;2022-08-25T04:24:11;11.40;;;10.20;;
39102;SDS011;24847;48.218;16.414;2022-08-25T04:29:14;12.07;;;10.43;;
39102;SDS011;24847;48.218;16.414;2022-08-25T04:34:19;16.50;;;10.57;;
39102;SDS011;24847;48.218;16.414;2022-08-25T04:39:25;12.57;;;10.73;;
39102;SDS011;24847;48.218;16.414;2022-08-25T04:44:27;12.23;;;10.35;;
39102;SDS011;24847;48.218;16.414;2022-08-25T04:49:31;14.65;;;10.55;;
39102;SDS011;24847;48.218;16.414;2022-08-25T04:54:34;15.32;;;11.23;;
39102;SDS011;24847;48.218;16.414;2022-08-25T04:59:37;13.50;;;11.20;;
39102;SDS011;24847;48.218;16.414;2022-08-25T05:04:39;14.25;;;11.80;;
39102;SDS011;24847;48.218;16.414;2022-08-25T05:09:43;11.27;;;10.15;;
39102;SDS011;24847;48.218;16.414;2022-08-25T05:14:45;14.77;;;11.30;;
39102;SDS011;24847;48.218;16.414;2022-08-25T05:19:47;12.05;;;10.80;;
39102;SDS011;24847;48.218;16.414;2022-08-25T05:24:51;12.05;;;10.80;;
39102;SDS011;24847;48.218;16.414;2022-08-25T05:29:53;14.57;;;11.27;;
39102;SDS011;24847;48.218;16.414;2022-08-25T05:34:55;11.75;;;10.57;;
39102;SDS011;24847;48.218;16.414;2022-08-25T05:39:59;12.20;;;10.52;;
39102;SDS011;24847;48.218;16.414;2022-08-25T05:45:02;14.15;;;10.55;;
39102;SDS011;24847;48.218;16.414;2022-08-25T05:50:05;13.50;;;10.60;;
39102;SDS011;24847;48.218;16.414;2022-08-25T05:55:10;12.75;;;11.02;;
39102;SDS011;24847;48.218;16.414;2022-08-25T06:00:14;14.60;;;10.93;;
39102;SDS011;24847;48.218;16.414;2022-08-25T06:05:19;13.73;;;11.13;;
39102;SDS011;24847;48.218;16.414;2022-08-25T06:10:24;15.15;;;10.73;;
39102;SDS011;24847;48.218;16.414;2022-08-25T06:15:27;16.15;;;10.50;;
39102;SDS011;24847;48.218;16.414;2022-08-25T06:20:30;12.52;;;11.10;;
39102;SDS011;24847;48.218;16.414;2022-08-25T06:25:34;12.50;;;10.63;;
39102;SDS011;24847;48.218;16.414;2022-08-25T06:30:37;11.52;;;9.80;;
39102;SDS011;24847;48.218;16.414;2022-08-25T06:35:40;20.25;;;11.63;;
39102;SDS011;24847;48.218;16.414;2022-08-25T06:40:47;12.57;;;9.90;;
39102;SDS011;24847;48.218;16.414;2022-08-25T06:45:51;12.83;;;10.40;;
39102;SDS011;24847;48.218;16.414;2022-08-25T06:50:53;12.93;;;10.55;;
39102;SDS011;24847;48.218;16.414;2022-08-25T06:55:57;17.05;;;12.18;;
39102;SDS011;24847;48.218;16.414;2022-08-25T07:01:05;12.48;;;10.95;;
39102;SDS011;24847;48.218;16.414;2022-08-25T07:06:09;14.32;;;11.35;;
39102;SDS011;24847;48.218;16.414;2022-08-25T07:11:12;13.98;;;10.82;;
39102;SDS011;24847;48.218;16.414;2022-08-25T07:16:16;16.90;;;11.52;;
39102;SDS011;24847;48.218;16.414;2022-08-25T07:21:19;14.90;;;10.52;;
39102;SDS011;24847;48.218;16.414;2022-08-25T07:26:24;11.27;;;10.02;;
39102;SDS011;24847;48.218;16.414;2022-08-25T07:31:28;15.50;;;10.95;;
39102;SDS011;24847;48.218;16.414;2022-08-25T07:36:31;14.15;;;11.40;;
39102;SDS011;24847;48.218;16.414;2022-08-25T07:41:36;15.27;;;11.15;;
39102;SDS011;24847;48.218;16.414;2022-08-25T07:46:40;13.70;;;11.85;;
39102;SDS011;24847;48.218;16.414;2022-08-25T07:51:42;13.75;;;11.63;;
39102;SDS011;24847;48.218;16.414;2022-08-25T07:56:46;14.30;;;11.15;;
39102;SDS011;24847;48.218;16.414;2022-08-25T08:01:49;13.27;;;10.73;;
39102;SDS011;24847;48.218;16.414;2022-08-25T08:06:51;12.07;;;10.20;;
39102;SDS011;24847;48.218;16.414;2022-08-25T08:11:54;14.55;;;10.32;;
39102;SDS011;24847;48.218;16.414;2022-08-25T08:16:57;13.50;;;10.63;;
39102;SDS011;24847;48.218;16.414;2022-08-25T08:21:59;13.13;;;10.57;;
39102;SDS011;24847;48.218;16.414;2022-08-25T08:27:04;13.02;;;10.18;;
39102;SDS011;24847;48.218;16.414;2022-08-25T08:32:08;14.38;;;10.80;;
39102;SDS011;24847;48.218;16.414;2022-08-25T08:37:13;13.38;;;10.10;;
39102;SDS011;24847;48.218;16.414;2022-08-25T08:42:21;13.20;;;9.40;;
39102;SDS011;24847;48.218;16.414;2022-08-25T08:47:52;13.88;;;9.98;;
39102;SDS011;24847;48.218;16.414;2022-08-25T08:53:13;11.63;;;9.35;;
39102;SDS011;24847;48.218;16.414;2022-08-25T08:58:24;11.98;;;9.45;;
39102;SDS011;24847;48.218;16.414;2022-08-25T09:03:32;10.73;;;9.60;;
39102;SDS011;24847;48.218;16.414;2022-08-25T09:08:38;13.10;;;9.82;;
39102;SDS011;24847;48.218;16.414;2022-08-25T09:13:49;10.25;;;8.52;;
39102;SDS011;24847;48.218;16.414;2022-08-25T09:19:09;9.30;;;7.75;;
39102;SDS011;24847;48.218;16.414;2022-08-25T09:24:27;10.23;;;7.27;;
39102;SDS011;24847;48.218;16.414;2022-08-25T09:29:47;10.45;;;7.55;;
39102;SDS011;24847;48.218;16.414;2022-08-25T09:35:00;9.80;;;7.63;;
39102;SDS011;24847;48.218;16.414;2022-08-25T09:40:04;13.07;;;10.07;;
39102;SDS011;24847;48.218;16.414;2022-08-25T09:45:12;12.23;;;7.45;;
39102;SDS011;24847;48.218;16.414;2022-08-25T09:50:15;9.55;;;6.75;;
39102;SDS011;24847;48.218;16.414;2022-08-25T09:55:25;11.80;;;7.28;;
39102;SDS011;24847;48.218;16.414;2022-08-25T10:00:34;8.35;;;6.78;;
39102;SDS011;24847;48.218;16.414;2022-08-25T10:05:39;8.70;;;6.47;;
39102;SDS011;24847;48.218;16.414;2022-08-25T10:10:59;8.93;;;6.70;;
39102;SDS011;24847;48.218;16.414;2022-08-25T10:16:10;8.70;;;6.65;;
39102;SDS011;24847;48.218;16.414;2022-08-25T10:21:23;8.38;;;6.40;;
39102;SDS011;24847;48.218;16.414;2022-08-25T10:26:27;7.22;;;5.90;;
39102;SDS011;24847;48.218;16.414;2022-08-25T10:31:49;6.85;;;6.00;;
39102;SDS011;24847;48.218;16.414;2022-08-25T10:36:58;7.43;;;6.25;;
39102;SDS011;24847;48.218;16.414;2022-08-25T10:42:21;9.15;;;6.35;;
39102;SDS011;24847;48.218;16.414;2022-08-25T10:47:41;8.30;;;5.97;;
39102;SDS011;24847;48.218;16.414;2022-08-25T10:53:19;8.57;;;5.68;;
39102;SDS011;24847;48.218;16.414;2022-08-25T10:58:31;6.68;;;5.70;;
39102;SDS011;24847;48.218;16.414;2022-08-25T11:03:58;6.18;;;5.43;;
39102;SDS011;24847;48.218;16.414;2022-08-25T11:09:06;7.68;;;6.85;;
39102;SDS011;24847;48.218;16.414;2022-08-25T11:14:13;6.13;;;5.53;;
39102;SDS011;24847;48.218;16.414;2022-08-25T11:19:23;6.93;;;5.47;;
39102;SDS011;24847;48.218;16.414;2022-08-25T11:24:36;6.97;;;5.82;;
39102;SDS011;24847;48.218;16.414;2022-08-25T11:29:47;7.03;;;5.50;;
39102;SDS011;24847;48.218;16.414;2022-08-25T11:35:00;9.20;;;6.35;;
39102;SDS011;24847;48.218;16.414;2022-08-25T11:40:16;8.17;;;5.77;;
39102;SDS011;24847;48.218;16.414;2022-08-25T11:45:40;8.98;;;5.30;;
39102;SDS011;24847;48.218;16.414;2022-08-25T11:50:57;7.72;;;5.47;;
39102;SDS011;24847;48.218;16.414;2022-08-25T11:56:03;6.88;;;5.72;;
39102;SDS011;24847;48.218;16.414;2022-08-25T12:01:10;9.90;;;6.03;;
39102;SDS011;24847;48.218;16.414;2022-08-25T12:18:53;8.27;;;5.53;;
39102;SDS011;24847;48.218;16.414;2022-08-25T12:24:46;5.35;;;4.85;;
39102;SDS011;24847;48.218;16.414;2022-08-25T12:29:54;7.43;;;5.32;;
39102;SDS011;24847;48.218;16.414;2022-08-25T12:35:10;7.15;;;5.10;;
39102;SDS011;24847;48.218;16.414;2022-08-25T12:40:26;5.50;;;4.60;;
39102;SDS011;24847;48.218;16.414;2022-08-25T12:45:38;6.75;;;4.18;;
39102;SDS011;24847;48.218;16.414;2022-08-25T12:50:45;5.95;;;4.40;;
39102;SDS011;24847;48.218;16.414;2022-08-25T12:55:53;5.82;;;4.45;;
39102;SDS011;24847;48.218;16.414;2022-08-25T13:01:09;6.97;;;4.43;;
39102;SDS011;24847;48.218;16.414;2022-08-25T13:06:32;6.88;;;4.60;;
39102;SDS011;24847;48.218;16.414;2022-08-25T13:12:01;7.53;;;5.00;;
39102;SDS011;24847;48.218;16.414;2022-08-25T13:17:10;6.07;;;3.75;;
39102;SDS011;24847;48.218;16.414;2022-08-25T13:22:25;4.65;;;3.50;;
39102;SDS011;24847;48.218;16.414;2022-08-25T13:27:29;8.45;;;3.90;;
39102;SDS011;24847;48.218;16.414;2022-08-25T13:32:36;4.87;;;3.90;;
39102;SDS011;24847;48.218;16.414;2022-08-25T13:37:38;4.75;;;3.97;;
39102;SDS011;24847;48.218;16.414;2022-08-25T13:42:43;5.68;;;3.80;;
39102;SDS011;24847;48.218;16.414;2022-08-25T13:47:48;5.43;;;3.95;;
39102;SDS011;24847;48.218;16.414;2022-08-25T13:52:52;4.60;;;3.28;;
39102;SDS011;24847;48.218;16.414;2022-08-25T13:57:59;5.18;;;3.65;;
39102;SDS011;24847;48.218;16.414;2022-08-25T14:03:02;5.63;;;3.65;;
39102;SDS011;24847;48.218;16.414;2022-08-25T14:08:05;4.40;;;3.45;;
39102;SDS011;24847;48.218;16.414;2022-08-25T14:13:31;3.63;;;3.33;;
39102;SDS011;24847;48.218;16.414;2022-08-25T14:18:33;5.10;;;3.78;;
39102;SDS011;24847;48.218;16.414;2022-08-25T14:23:37;9.05;;;4.05;;
39102;SDS011;24847;48.218;16.414;2022-08-25T14:28:41;5.30;;;3.88;;
39102;SDS011;24847;48.218;16.414;2022-08-25T14:33:46;4.15;;;3.75;;
39102;SDS011;24847;48.218;16.414;2022-08-25T14:38:53;4.53;;;3.33;;
39102;SDS011;24847;48.218;16.414;2022-08-25T14:43:57;3.97;;;3.50;;
39102;SDS011;24847;48.218;16.414;2022-08-25T14:49:01;3.92;;;3.53;;
39102;SDS011;24847;48.218;16.414;2022-08-25T14:54:09;3.90;;;2.92;;
39102;SDS011;24847;48.218;16.414;2022-08-25T14:59:15;5.20;;;3.50;;
39102;SDS011;24847;48.218;16.414;2022-08-25T15:04:18;6.05;;;4.75;;
39102;SDS011;24847;48.218;16.414;2022-08-25T15:09:23;4.03;;;3.65;;
39102;SDS011;24847;48.218;16.414;2022-08-25T15:14:27;4.80;;;3.65;;
39102;SDS011;24847;48.218;16.414;2022-08-25T15:19:29;6.75;;;4.00;;
39102;SDS011;24847;48.218;16.414;2022-08-25T15:24:31;4.25;;;3.78;;
39102;SDS011;24847;48.218;16.414;2022-08-25T15:29:35;4.90;;;3.40;;
39102;SDS011;24847;48.218;16.414;2022-08-25T15:34:37;4.68;;;3.50;;
39102;SDS011;24847;48.218;16.414;2022-08-25T15:39:40;5.43;;;3.28;;
39102;SDS011;24847;48.218;16.414;2022-08-25T15:44:45;5.75;;;3.95;;
39102;SDS011;24847;48.218;16.414;2022-08-25T15:49:47;5.72;;;3.85;;
39102;SDS011;24847;48.218;16.414;2022-08-25T15:54:49;4.40;;;3.28;;
39102;SDS011;24847;48.218;16.414;2022-08-25T15:59:53;4.38;;;3.22;;
39102;SDS011;24847;48.218;16.414;2022-08-25T16:04:55;4.32;;;3.55;;
39102;SDS011;24847;48.218;16.414;2022-08-25T16:09:58;5.53;;;3.53;;
39102;SDS011;24847;48.218;16.414;2022-08-25T16:15:01;3.60;;;3.10;;
39102;SDS011;24847;48.218;16.414;2022-08-25T16:20:05;5.72;;;3.80;;
39102;SDS011;24847;48.218;16.414;2022-08-25T16:25:08;6.55;;;3.50;;
39102;SDS011;24847;48.218;16.414;2022-08-25T16:30:13;6.65;;;4.82;;
39102;SDS011;24847;48.218;16.414;2022-08-25T16:35:17;4.32;;;3.60;;
39102;SDS011;24847;48.218;16.414;2022-08-25T16:40:19;3.38;;;2.78;;
39102;SDS011;24847;48.218;16.414;2022-08-25T16:45:26;4.43;;;3.85;;
39102;SDS011;24847;48.218;16.414;2022-08-25T16:50:28;5.20;;;3.25;;
39102;SDS011;24847;48.218;16.414;2022-08-25T16:55:31;4.25;;;2.95;;
39102;SDS011;24847;48.218;16.414;2022-08-25T17:00:36;10.70;;;9.70;;
39102;SDS011;24847;48.218;16.414;2022-08-25T17:05:40;6.03;;;4.28;;
39102;SDS011;24847;48.218;16.414;2022-08-25T17:10:43;4.47;;;3.22;;
39102;SDS011;24847;48.218;16.414;2022-08-25T17:15:47;4.22;;;3.13;;
39102;SDS011;24847;48.218;16.414;2022-08-25T17:20:56;6.15;;;3.42;;
39102;SDS011;24847;48.218;16.414;2022-08-25T17:26:00;7.68;;;4.35;;
39102;SDS011;24847;48.218;16.414;2022-08-25T17:31:06;5.80;;;5.20;;
39102;SDS011;24847;48.218;16.414;2022-08-25T17:36:09;5.20;;;4.13;;
39102;SDS011;24847;48.218;16.414;2022-08-25T17:41:13;4.40;;;3.30;;
39102;SDS011;24847;48.218;16.414;2022-08-25T17:46:16;4.20;;;3.67;;
39102;SDS011;24847;48.218;16.414;2022-08-25T17:51:19;3.85;;;3.38;;
39102;SDS011;24847;48.218;16.414;2022-08-25T17:56:22;4.20;;;3.45;;
39102;SDS011;24847;48.218;16.414;2022-08-25T18:01:28;5.90;;;5.20;;
39102;SDS011;24847;48.218;16.414;2022-08-25T18:06:33;4.22;;;3.70;;
39102;SDS011;24847;48.218;16.414;2022-08-25T18:11:35;4.72;;;3.83;;
39102;SDS011;24847;48.218;16.414;2022-08-25T18:16:40;5.45;;;4.97;;
39102;SDS011;24847;48.218;16.414;2022-08-25T18:21:42;7.82;;;5.63;;
39102;SDS011;24847;48.218;16.414;2022-08-25T18:26:45;7.13;;;3.83;;
39102;SDS011;24847;48.218;16.414;2022-08-25T18:31:49;7.32;;;4.28;;
39102;SDS011;24847;48.218;16.414;2022-08-25T18:36:51;23.20;;;21.13;;
39102;SDS011;24847;48.218;16.414;2022-08-25T18:41:53;23.65;;;21.27;;
39102;SDS011;24847;48.218;16.414;2022-08-25T18:46:57;15.10;;;13.60;;
39102;SDS011;24847;48.218;16.414;2022-08-25T18:52:00;9.02;;;6.30;;
39102;SDS011;24847;48.218;16.414;2022-08-25T18:57:02;7.55;;;4.88;;
39102;SDS011;24847;48.218;16.414;2022-08-25T19:02:06;6.55;;;4.03;;
39102;SDS011;24847;48.218;16.414;2022-08-25T19:07:09;6.25;;;4.60;;
39102;SDS011;24847;48.218;16.414;2022-08-25T19:12:13;6.28;;;4.38;;
39102;SDS011;24847;48.218;16.414;2022-08-25T19:17:16;6.35;;;4.78;;
39102;SDS011;24847;48.218;16.414;2022-08-25T19:22:19;7.72;;;5.38;;
39102;SDS011;24847;48.218;16.414;2022-08-25T19:27:21;6.57;;;4.70;;
39102;SDS011;24847;48.218;16.414;2022-08-25T19:32:25;15.35;;;13.50;;
39102;SDS011;24847;48.218;16.414;2022-08-25T19:37:28;8.50;;;7.63;;
39102;SDS011;24847;48.218;16.414;2022-08-25T19:42:30;8.40;;;5.72;;
39102;SDS011;24847;48.218;16.414;2022-08-25T19:47:34;5.93;;;5.28;;
39102;SDS011;24847;48.218;16.414;2022-08-25T19:52:37;6.15;;;5.40;;
39102;SDS011;24847;48.218;16.414;2022-08-25T19:57:40;7.75;;;6.22;;
39102;SDS011;24847;48.218;16.414;2022-08-25T20:02:44;7.05;;;5.70;;
39102;SDS011;24847;48.218;16.414;2022-08-25T20:07:48;7.18;;;5.68;;
39102;SDS011;24847;48.218;16.414;2022-08-25T20:12:52;6.78;;;5.35;;
39102;SDS011;24847;48.218;16.414;2022-08-25T20:17:56;6.22;;;5.57;;
39102;SDS011;24847;48.218;16.414;2022-08-25T20:22:58;7.30;;;5.88;;
39102;SDS011;24847;48.218;16.414;2022-08-25T20:28:15;8.82;;;5.75;;
39102;SDS011;24847;48.218;16.414;2022-08-25T20:33:18;6.45;;;4.90;;
39102;SDS011;24847;48.218;16.414;2022-08-25T20:38:20;7.32;;;5.53;;
39102;SDS011;24847;48.218;16.414;2022-08-25T20:43:22;6.38;;;5.18;;
39102;SDS011;24847;48.218;16.414;2022-08-25T20:48:28;9.32;;;6.72;;
39102;SDS011;24847;48.218;16.414;2022-08-25T20:53:31;8.70;;;5.38;;
39102;SDS011;24847;48.218;16.414;2022-08-25T20:58:36;6.47;;;5.88;;
39102;SDS011;24847;48.218;16.414;2022-08-25T21:03:42;9.00;;;6.72;;
39102;SDS011;24847;48.218;16.414;2022-08-25T21:08:44;9.25;;;7.88;;
39102;SDS011;24847;48.218;16.414;2022-08-25T21:13:46;7.82;;;6.57;;
39102;SDS011;24847;48.218;16.414;2022-08-25T21:18:50;7.68;;;6.93;;
39102;SDS011;24847;48.218;16.414;2022-08-25T21:23:52;11.27;;;7.28;;
39102;SDS011;24847;48.218;16.414;2022-08-25T21:28:55;12.20;;;10.90;;
39102;SDS011;24847;48.218;16.414;2022-08-25T21:34:01;12.02;;;10.77;;
39102;SDS011;24847;48.218;16.414;2022-08-25T21:39:05;8.23;;;6.72;;
39102;SDS011;24847;48.218;16.414;2022-08-25T21:44:08;7.20;;;6.50;;
39102;SDS011;24847;48.218;16.414;2022-08-25T21:49:13;8.25;;;6.38;;
39102;SDS011;24847;48.218;16.414;2022-08-25T21:54:16;8.68;;;7.10;;
39102;SDS011;24847;48.218;16.414;2022-08-25T21:59:19;10.75;;;8.38;;
39102;SDS011;24847;48.218;16.414;2022-08-25T22:04:27;8.13;;;6.78;;
39102;SDS011;24847;48.218;16.414;2022-08-25T22:09:31;8.10;;;6.15;;
39102;SDS011;24847;48.218;16.414;2022-08-25T22:14:34;8.20;;;6.70;;
39102;SDS011;24847;48.218;16.414;2022-08-25T22:19:39;9.18;;;7.13;;
39102;SDS011;24847;48.218;16.414;2022-08-25T22:24:41;8.35;;;7.18;;
39102;SDS011;24847;48.218;16.414;2022-08-25T22:29:43;8.45;;;6.07;;
39102;SDS011;24847;48.218;16.414;2022-08-25T22:34:48;6.80;;;6.10;;
39102;SDS011;24847;48.218;16.414;2022-08-25T22:39:50;6.20;;;5.65;;
39102;SDS011;24847;48.218;16.414;2022-08-25T22:44:52;7.07;;;5.28;;
39102;SDS011;24847;48.218;16.414;2022-08-25T22:49:57;6.68;;;5.95;;
39102;SDS011;24847;48.218;16.414;2022-08-25T22:54:59;8.30;;;5.72;;
39102;SDS011;24847;48.218;16.414;2022-08-25T23:00:03;6.60;;;5.45;;
39102;SDS011;24847;48.218;16.414;2022-08-25T23:05:08;6.30;;;5.65;;
39102;SDS011;24847;48.218;16.414;2022-08-25T23:10:12;6.43;;;5.55;;
39102;SDS011;24847;48.218;16.414;2022-08-25T23:15:14;5.60;;;5.00;;
39102;SDS011;24847;48.218;16.414;2022-08-25T23:20:18;5.80;;;5.20;;
39102;SDS011;24847;48.218;16.414;2022-08-25T23:25:38;6.38;;;5.25;;
39102;SDS011;24847;48.218;16.414;2022-08-25T23:30:41;6.88;;;6.18;;
39102;SDS011;24847;48.218;16.414;2022-08-25T23:35:45;8.73;;;6.95;;
39102;SDS011;24847;48.218;16.414;2022-08-25T23:40:49;7.13;;;6.32;;
39102;SDS011;24847;48.218;16.414;2022-08-25T23:45:52;6.97;;;5.85;;
39102;SDS011;24847;48.218;16.414;2022-08-25T23:50:55;7.85;;;6.07;;
39102;SDS011;24847;48.218;16.414;2022-08-25T23:55:59;6.15;;;5.55;;
